• Join FlightAware (Why Join?)
  • Login
  • US Flag 
05:45AM EST


 

Airport Tracker/Info


-or-


 

Live Flight TrackerFlight Track Log ✈ SWA920 ✈ 29-Apr-2013 ✈ KCHS - KBWI

Flight Track Log - Related Links

Times and Time Zones

All times are in EDT time to prevent confusion due to time zone crossing. See the SWA920 flight status page for this flight to view local times or setup timezone preferences in your user account.

Time Position Orientation Groundspeed Altitude Reporting Facility
EDT Latitude Longitude Course Direction KTS MPH feet Rate Location/Type
07:56PM 32.8872 -80.0058 58° Northeast 241 277 3,700  Level Jacksonville Center
07:57PM 32.9619 -79.9908 10° North 258 297 6,300 3,000 Climbing Jacksonville Center
07:58PM 33.0408 -79.9686 13° North 276 318 9,800 3,000 Climbing Jacksonville Center
07:59PM 33.1208 -79.9089 32° Northeast 302 348 12,400 3,000 Climbing Jacksonville Center
08:00PM 33.3408 -79.8963 23° Northeast  Level FlightAware Approximate
08:00PM 33.2069 -79.8439 32° Northeast 330 380 15,900  Level Jacksonville Center
08:01PM 33.2972 -79.7764 32° Northeast 355 409 18,600 2,400 Climbing Jacksonville Center
08:02PM 33.3933 -79.7058 31° Northeast 384 442 20,800 2,280 Climbing Jacksonville Center
08:03PM 33.4936 -79.6275 33° Northeast 405 466 23,300 2,400 Climbing Jacksonville Center
08:04PM 33.5961 -79.5514 32° Northeast 425 489 25,600 2,040 Climbing Jacksonville Center
08:05PM 33.7003 -79.4725 32° Northeast 431 496 27,400 1,620 Climbing Jacksonville Center
08:06PM 33.8211 -79.3828 32° Northeast 436 502 28,900 1,500 Climbing Jacksonville Center
08:07PM 34.0311 -79.2228 32° Northeast 483 556 31,600 1,620 Climbing Washington Center
08:08PM 34.1486 -79.1350 32° Northeast 490 564 33,600 1,680 Climbing Washington Center
08:09PM 34.2444 -79.0639 32° Northeast 495 570 35,000 1,500 Climbing Washington Center
08:10PM 34.3875 -78.9567 32° Northeast 495 570 36,700 960 Climbing Washington Center
08:11PM 34.5103 -78.8936 23° Northeast 488 562 37,000 120 Climbing Washington Center
08:12PM 34.6225 -78.8300 25° Northeast 482 555 37,000  Level Washington Center
08:13PM 34.7472 -78.7667 23° Northeast 477 549 37,000  Level Washington Center
08:14PM 34.8719 -78.7058 22° Northeast 477 549 37,000  Level Washington Center
08:15PM 34.9947 -78.6419 23° Northeast 477 549 37,000  Level Washington Center
08:16PM 35.1172 -78.5806 22° Northeast 477 549 37,000  Level Washington Center
08:17PM 35.2356 -78.5164 24° Northeast 477 549 37,000  Level Washington Center
08:18PM 35.3772 -78.4478 22° Northeast 477 549 37,000  Level Washington Center
08:19PM 35.4978 -78.3781 25° Northeast 477 549 37,000  Level Washington Center
08:20PM 35.6222 -78.3183 21° North 482 555 37,000  Level Washington Center
08:21PM 35.7447 -78.2561 22° Northeast 477 549 37,000  Level Washington Center
08:22PM 35.8669 -78.1936 23° Northeast 477 549 37,000  Level Washington Center
08:23PM 35.9853 -78.1333 22° Northeast 477 549 37,000  Level Washington Center
08:24PM 36.1075 -78.0703 23° Northeast 472 543 37,000 -780 Level Washington Center
08:25PM 36.2256 -78.0072 23° Northeast 467 537 35,500 -1,860 Descending Washington Center
08:26PM 36.3458 -77.9411 24° Northeast 462 532 33,400 -2,040 Descending Washington Center
08:27PM 36.4492 -77.8850 24° Northeast 457 526 31,400 -2,100 Descending Washington Center
08:28PM 36.5672 -77.8264 22° Northeast 457 526 29,200 -1,440 Descending Washington Center
08:29PM 36.6789 -77.7647 24° Northeast 445 512 28,600 -780 Descending Washington Center
08:30PM 36.7883 -77.7083 22° Northeast 435 501 27,700 -840 Descending Washington Center
08:31PM 36.8956 -77.6539 22° Northeast 419 482 27,000 -360 Descending Washington Center
08:32PM 37.0028 -77.6178 15° North 408 470 27,000  Level Washington Center
08:33PM 37.1097 -77.5817 15° North 402 463 27,000  Level Washington Center
08:34PM 37.2147 -77.5453 15° North 397 457 27,000  Level Washington Center
08:35PM 37.3217 -77.5089 15° North 397 457 27,000  Level Washington Center
08:36PM 37.4264 -77.4722 16° North 397 457 27,000 -840 Level Washington Center
08:37PM 37.5272 -77.4381 15° North 387 445 25,400 -1,740 Descending Washington Center
08:38PM 37.6256 -77.4036 16° North 374 430 23,500 -1,200 Descending Washington Center
08:39PM 37.7222 -77.3692 16° North 363 418 23,000 -300 Descending Washington Center
08:40PM 37.8228 -77.3347 15° North 363 418 23,000  Level Washington Center
08:41PM 37.9211 -77.3003 15° North 363 418 23,000  Level Washington Center
08:42PM 38.0219 -77.2631 16° North 363 418 23,000  Level Washington Center
08:43PM 38.1203 -77.2333 13° North 358 412 23,000 -540 Level Washington Center
08:44PM 38.2292 -77.1961 15° North 363 418 22,000  Descending Washington Center
08:45PM 38.3236 -77.1583 17° North 363 418 23,000 -2,400 Climbing Washington Center
08:46PM 38.4139 -77.0994 27° Northeast 363 418 17,300 -4,020 Descending Washington Center
08:47PM 38.5044 -77.0322 30° Northeast 363 418 14,900 -1,380 Descending Washington Center
08:48PM 38.5983 -77.0314 360° North 346 398 14,600 -1,140 Descending Washington Center
08:49PM 38.6667 -76.9833 29° Northeast 312 359 12,700 -2,160 Descending Potomac TRACON
08:50PM 38.6833 -76.8833 78° East 307 353 10,500 -1,620 Descending Potomac TRACON
08:51PM 38.7000 -76.7833 78° East 282 325 9,500 -960 Descending Potomac TRACON
08:52PM 38.7333 -76.7000 63° Northeast 274 315 8,600 -1,200 Descending Potomac TRACON
08:53PM 38.7667 -76.6000 67° East 265 305 7,100 -1,260 Descending Potomac TRACON
08:54PM 38.8000 -76.5333 57° Northeast 246 283 6,100 -600 Descending Potomac TRACON
08:55PM 38.8500 -76.5167 15° North 239 275 6,000  Descending Potomac TRACON
08:56PM 38.9000 -76.4333 52° Northeast 225 259 6,100  Climbing Potomac TRACON
08:57PM 38.9167 -76.3833 67° East 225 259 6,100  Level Potomac TRACON
08:58PM 38.9833 -76.3333 30° Northeast 232 267 6,100  Level Potomac TRACON
08:59PM 39.0500 -76.3333 360° North 236 272 6,100  Level Potomac TRACON
09:00PM 39.1167 -76.3333 360° North 242 278 6,100  Level Potomac TRACON
09:01PM 39.1833 -76.3333 360° North 245 282 6,100  Level Potomac TRACON
09:02PM 39.2333 -76.4000 314° West 253 291 6,100 -240 Level Potomac TRACON
09:03PM 39.2833 -76.4500 322° Northwest 254 292 5,700 -600 Descending Potomac TRACON
09:04PM 39.3333 -76.5167 314° West 244 281 4,900 -900 Descending Potomac TRACON
09:05PM 39.3667 -76.5833 303° West 244 281 4,000 -480 Descending Potomac TRACON
09:06PM 39.3833 -76.6667 285° West 241 277 4,000  Level Potomac TRACON
09:07PM 39.3833 -76.7500 270° West 240 276 4,000  Level Potomac TRACON
09:08PM 39.3667 -76.8333 256° West 211 243 4,000  Level Potomac TRACON